sensor_id;sensor_type;location;lat;lon;timestamp;pressure;altitude;pressure_sealevel;temperature;humidity
63111;BME280;49201;53.426;10.300;2022-08-16T00:01:24;100557.88;;;20.85;94.21
63111;BME280;49201;53.426;10.300;2022-08-16T00:03:51;100556.97;;;20.86;93.79
63111;BME280;49201;53.426;10.300;2022-08-16T00:06:17;100563.06;;;20.87;93.71
63111;BME280;49201;53.426;10.300;2022-08-16T00:08:42;100556.94;;;20.88;93.54
63111;BME280;49201;53.426;10.300;2022-08-16T00:11:09;100552.72;;;20.84;94.32
63111;BME280;49201;53.426;10.300;2022-08-16T00:13:35;100556.28;;;20.80;94.94
63111;BME280;49201;53.426;10.300;2022-08-16T00:16:01;100551.19;;;20.77;95.22
63111;BME280;49201;53.426;10.300;2022-08-16T00:18:26;100548.63;;;20.75;95.28
63111;BME280;49201;53.426;10.300;2022-08-16T00:20:52;100536.34;;;20.80;94.51
63111;BME280;49201;53.426;10.300;2022-08-16T00:23:17;100537.22;;;20.79;94.67
63111;BME280;49201;53.426;10.300;2022-08-16T00:25:43;100540.84;;;20.74;95.08
63111;BME280;49201;53.426;10.300;2022-08-16T00:28:09;100540.81;;;20.75;95.39
63111;BME280;49201;53.426;10.300;2022-08-16T00:30:35;100544.16;;;20.80;95.17
63111;BME280;49201;53.426;10.300;2022-08-16T00:33:01;100546.75;;;20.80;95.39
63111;BME280;49201;53.426;10.300;2022-08-16T00:35:30;100564.97;;;20.80;94.77
63111;BME280;49201;53.426;10.300;2022-08-16T00:37:57;100562.47;;;20.76;95.18
63111;BME280;49201;53.426;10.300;2022-08-16T00:40:33;100572.13;;;20.72;95.33
63111;BME280;49201;53.426;10.300;2022-08-16T00:42:59;100572.19;;;20.69;95.22
63111;BME280;49201;53.426;10.300;2022-08-16T00:48:08;100574.94;;;20.65;95.40
63111;BME280;49201;53.426;10.300;2022-08-16T00:50:38;100574.94;;;20.65;95.14
63111;BME280;49201;53.426;10.300;2022-08-16T00:53:06;100575.84;;;20.62;95.24
63111;BME280;49201;53.426;10.300;2022-08-16T00:55:34;100571.59;;;20.60;95.66
63111;BME280;49201;53.426;10.300;2022-08-16T00:58:01;100571.53;;;20.63;95.54
63111;BME280;49201;53.426;10.300;2022-08-16T01:00:30;100567.13;;;20.65;94.91
63111;BME280;49201;53.426;10.300;2022-08-16T01:02:58;100575.91;;;20.61;95.49
63111;BME280;49201;53.426;10.300;2022-08-16T01:05:25;100586.28;;;20.62;95.71
63111;BME280;49201;53.426;10.300;2022-08-16T01:07:52;100592.47;;;20.57;95.84
63111;BME280;49201;53.426;10.300;2022-08-16T01:10:23;100586.38;;;20.58;95.90
63111;BME280;49201;53.426;10.300;2022-08-16T01:12:49;100594.16;;;20.59;96.19
63111;BME280;49201;53.426;10.300;2022-08-16T01:15:16;100583.75;;;20.58;96.14
63111;BME280;49201;53.426;10.300;2022-08-16T01:17:43;100582.06;;;20.57;96.30
63111;BME280;49201;53.426;10.300;2022-08-16T01:20:12;100582.06;;;20.57;96.23
63111;BME280;49201;53.426;10.300;2022-08-16T01:25:17;100577.69;;;20.59;95.86
63111;BME280;49201;53.426;10.300;2022-08-16T01:27:47;100581.97;;;20.61;95.88
63111;BME280;49201;53.426;10.300;2022-08-16T01:30:21;100587.19;;;20.60;96.10
63111;BME280;49201;53.426;10.300;2022-08-16T01:32:53;100594.19;;;20.58;96.46
63111;BME280;49201;53.426;10.300;2022-08-16T01:35:48;100598.44;;;20.60;95.88
63111;BME280;49201;53.426;10.300;2022-08-16T01:38:25;100595.84;;;20.60;95.58
63111;BME280;49201;53.426;10.300;2022-08-16T01:40:55;100590.63;;;20.60;95.91
63111;BME280;49201;53.426;10.300;2022-08-16T01:43:23;100590.72;;;20.59;95.95
63111;BME280;49201;53.426;10.300;2022-08-16T01:45:55;100585.69;;;20.51;96.32
63111;BME280;49201;53.426;10.300;2022-08-16T01:48:23;100584.75;;;20.54;96.20
63111;BME280;49201;53.426;10.300;2022-08-16T01:50:50;100589.91;;;20.55;96.10
63111;BME280;49201;53.426;10.300;2022-08-16T01:53:16;100589.91;;;20.55;96.32
63111;BME280;49201;53.426;10.300;2022-08-16T01:56:00;100593.41;;;20.54;96.10
63111;BME280;49201;53.426;10.300;2022-08-16T01:58:29;100588.31;;;20.51;96.25
63111;BME280;49201;53.426;10.300;2022-08-16T02:00:54;100591.78;;;20.50;96.11
63111;BME280;49201;53.426;10.300;2022-08-16T02:03:20;100586.66;;;20.47;96.28
63111;BME280;49201;53.426;10.300;2022-08-16T02:05:45;100592.72;;;20.46;96.65
63111;BME280;49201;53.426;10.300;2022-08-16T02:08:11;100586.72;;;20.44;96.74
63111;BME280;49201;53.426;10.300;2022-08-16T02:10:37;100585.84;;;20.44;96.66
63111;BME280;49201;53.426;10.300;2022-08-16T02:13:04;100592.81;;;20.45;96.74
63111;BME280;49201;53.426;10.300;2022-08-16T02:15:33;100598.84;;;20.45;96.27
63111;BME280;49201;53.426;10.300;2022-08-16T02:17:59;100594.50;;;20.46;96.06
63111;BME280;49201;53.426;10.300;2022-08-16T02:20:31;100591.03;;;20.45;96.09
63111;BME280;49201;53.426;10.300;2022-08-16T02:22:59;100587.59;;;20.45;96.39
63111;BME280;49201;53.426;10.300;2022-08-16T02:25:26;100594.50;;;20.46;96.20
63111;BME280;49201;53.426;10.300;2022-08-16T02:27:52;100586.72;;;20.44;96.04
63111;BME280;49201;53.426;10.300;2022-08-16T02:30:27;100592.00;;;20.41;96.29
63111;BME280;49201;53.426;10.300;2022-08-16T02:32:53;100590.31;;;20.39;96.21
63111;BME280;49201;53.426;10.300;2022-08-16T02:35:20;100590.25;;;20.42;96.02
63111;BME280;49201;53.426;10.300;2022-08-16T02:37:46;100590.28;;;20.40;96.26
63111;BME280;49201;53.426;10.300;2022-08-16T02:40:13;100587.72;;;20.39;96.66
63111;BME280;49201;53.426;10.300;2022-08-16T02:42:44;100593.81;;;20.38;96.52
63111;BME280;49201;53.426;10.300;2022-08-16T02:45:10;100595.72;;;20.31;96.73
63111;BME280;49201;53.426;10.300;2022-08-16T02:47:36;100597.41;;;20.32;96.77
63111;BME280;49201;53.426;10.300;2022-08-16T02:50:03;100600.09;;;20.31;96.75
63111;BME280;49201;53.426;10.300;2022-08-16T02:52:28;100601.09;;;20.24;97.26
63111;BME280;49201;53.426;10.300;2022-08-16T02:54:56;100598.53;;;20.22;97.28
63111;BME280;49201;53.426;10.300;2022-08-16T02:57:23;100597.63;;;20.23;96.78
63111;BME280;49201;53.426;10.300;2022-08-16T02:59:49;100594.25;;;20.20;96.58
63111;BME280;49201;53.426;10.300;2022-08-16T03:02:16;100597.75;;;20.19;97.00
63111;BME280;49201;53.426;10.300;2022-08-16T03:04:42;100593.50;;;20.16;97.24
63111;BME280;49201;53.426;10.300;2022-08-16T03:07:08;100601.28;;;20.16;97.07
63111;BME280;49201;53.426;10.300;2022-08-16T03:09:44;100589.09;;;20.18;97.07
63111;BME280;49201;53.426;10.300;2022-08-16T03:12:13;100586.63;;;20.14;97.08
63111;BME280;49201;53.426;10.300;2022-08-16T03:14:39;100584.06;;;20.11;97.59
63111;BME280;49201;53.426;10.300;2022-08-16T03:17:05;100589.28;;;20.11;97.31
63111;BME280;49201;53.426;10.300;2022-08-16T03:19:35;100592.91;;;20.04;97.76
63111;BME280;49201;53.426;10.300;2022-08-16T03:22:02;100591.09;;;20.06;97.73
63111;BME280;49201;53.426;10.300;2022-08-16T03:24:28;100592.91;;;20.04;97.77
63111;BME280;49201;53.426;10.300;2022-08-16T03:26:58;100589.44;;;20.03;97.61
63111;BME280;49201;53.426;10.300;2022-08-16T03:29:28;100593.06;;;19.96;97.79
63111;BME280;49201;53.426;10.300;2022-08-16T03:31:54;100590.56;;;19.92;98.53
63111;BME280;49201;53.426;10.300;2022-08-16T03:34:20;100584.53;;;19.91;98.68
63111;BME280;49201;53.426;10.300;2022-08-16T03:36:46;100588.00;;;19.90;98.58
63111;BME280;49201;53.426;10.300;2022-08-16T03:39:12;100585.41;;;19.89;98.50
63111;BME280;49201;53.426;10.300;2022-08-16T03:41:38;100590.63;;;19.89;98.67
63111;BME280;49201;53.426;10.300;2022-08-16T03:44:06;100579.31;;;19.91;97.98
63111;BME280;49201;53.426;10.300;2022-08-16T03:46:35;100573.22;;;19.92;97.71
63111;BME280;49201;53.426;10.300;2022-08-16T03:49:02;100571.44;;;19.94;97.74
63111;BME280;49201;53.426;10.300;2022-08-16T03:51:27;100572.41;;;19.89;98.16
63111;BME280;49201;53.426;10.300;2022-08-16T03:53:59;100579.44;;;19.85;98.77
63111;BME280;49201;53.426;10.300;2022-08-16T03:56:24;100585.69;;;19.78;99.42
63111;BME280;49201;53.426;10.300;2022-08-16T03:58:52;100590.00;;;19.79;99.19
63111;BME280;49201;53.426;10.300;2022-08-16T04:01:25;100591.72;;;19.79;99.30
63111;BME280;49201;53.426;10.300;2022-08-16T04:03:55;100594.34;;;19.77;99.38
63111;BME280;49201;53.426;10.300;2022-08-16T04:06:24;100601.31;;;19.77;99.36
63111;BME280;49201;53.426;10.300;2022-08-16T04:08:50;100598.72;;;19.75;99.30
63111;BME280;49201;53.426;10.300;2022-08-16T04:11:16;100603.03;;;19.76;99.39
63111;BME280;49201;53.426;10.300;2022-08-16T04:13:41;100606.50;;;19.77;99.34
63111;BME280;49201;53.426;10.300;2022-08-16T04:16:08;100617.72;;;19.79;99.17
63111;BME280;49201;53.426;10.300;2022-08-16T04:18:35;100615.09;;;19.79;98.69
63111;BME280;49201;53.426;10.300;2022-08-16T04:21:04;100603.91;;;19.77;99.60
63111;BME280;49201;53.426;10.300;2022-08-16T04:23:30;100613.44;;;19.76;99.01
63111;BME280;49201;53.426;10.300;2022-08-16T04:25:58;100618.59;;;19.78;99.21
63111;BME280;49201;53.426;10.300;2022-08-16T04:28:24;100617.81;;;19.74;99.34
63111;BME280;49201;53.426;10.300;2022-08-16T04:30:51;100621.25;;;19.75;99.50
63111;BME280;49201;53.426;10.300;2022-08-16T04:33:18;100631.63;;;19.76;99.35
63111;BME280;49201;53.426;10.300;2022-08-16T04:35:44;100627.28;;;19.78;99.21
63111;BME280;49201;53.426;10.300;2022-08-16T04:38:11;100626.34;;;19.81;99.27
63111;BME280;49201;53.426;10.300;2022-08-16T04:40:42;100631.59;;;19.78;99.26
63111;BME280;49201;53.426;10.300;2022-08-16T04:43:08;100625.50;;;19.79;99.17
63111;BME280;49201;53.426;10.300;2022-08-16T04:45:41;100624.53;;;19.84;98.70
63111;BME280;49201;53.426;10.300;2022-08-16T04:48:10;100623.63;;;19.85;98.69
63111;BME280;49201;53.426;10.300;2022-08-16T04:50:47;100627.88;;;19.89;98.06
63111;BME280;49201;53.426;10.300;2022-08-16T04:53:16;100624.31;;;19.93;97.58
63111;BME280;49201;53.426;10.300;2022-08-16T04:55:44;100626.16;;;19.90;97.72
63111;BME280;49201;53.426;10.300;2022-08-16T04:58:09;100631.38;;;19.88;98.23
63111;BME280;49201;53.426;10.300;2022-08-16T05:00:35;100634.81;;;19.89;98.29
63111;BME280;49201;53.426;10.300;2022-08-16T05:03:12;100628.72;;;19.91;98.01
63111;BME280;49201;53.426;10.300;2022-08-16T05:05:44;100628.66;;;19.93;97.25
63111;BME280;49201;53.426;10.300;2022-08-16T05:08:11;100631.16;;;19.99;97.48
63111;BME280;49201;53.426;10.300;2022-08-16T05:10:41;100633.56;;;20.06;96.98
63111;BME280;49201;53.426;10.300;2022-08-16T05:13:08;100631.75;;;20.11;96.58
63111;BME280;49201;53.426;10.300;2022-08-16T05:15:34;100634.31;;;20.13;96.56
63111;BME280;49201;53.426;10.300;2022-08-16T05:18:01;100635.16;;;20.13;96.16
63111;BME280;49201;53.426;10.300;2022-08-16T05:20:35;100642.03;;;20.16;96.17
63111;BME280;49201;53.426;10.300;2022-08-16T05:23:02;100645.47;;;20.18;96.77
63111;BME280;49201;53.426;10.300;2022-08-16T05:25:28;100641.16;;;20.17;96.85
63111;BME280;49201;53.426;10.300;2022-08-16T05:27:54;100643.44;;;20.30;96.86
63111;BME280;49201;53.426;10.300;2022-08-16T05:30:23;100645.22;;;20.28;96.96
63111;BME280;49201;53.426;10.300;2022-08-16T05:32:48;100655.72;;;20.24;97.09
63111;BME280;49201;53.426;10.300;2022-08-16T05:35:15;100655.94;;;20.15;97.44
63111;BME280;49201;53.426;10.300;2022-08-16T05:37:54;100656.84;;;20.14;97.88
63111;BME280;49201;53.426;10.300;2022-08-16T05:40:20;100658.34;;;20.22;97.73
63111;BME280;49201;53.426;10.300;2022-08-16T05:42:46;100671.19;;;20.30;96.90
63111;BME280;49201;53.426;10.300;2022-08-16T05:45:11;100667.81;;;20.26;97.22
63111;BME280;49201;53.426;10.300;2022-08-16T05:47:39;100671.16;;;20.31;97.04
63111;BME280;49201;53.426;10.300;2022-08-16T05:50:06;100679.16;;;20.22;96.90
63111;BME280;49201;53.426;10.300;2022-08-16T05:52:32;100685.97;;;20.29;96.56
63111;BME280;49201;53.426;10.300;2022-08-16T05:54:59;100685.06;;;20.30;96.88
63111;BME280;49201;53.426;10.300;2022-08-16T05:57:26;100685.72;;;20.40;96.85
63111;BME280;49201;53.426;10.300;2022-08-16T05:59:51;100688.97;;;20.48;96.43
63111;BME280;49201;53.426;10.300;2022-08-16T06:02:18;100682.72;;;20.56;95.25
63111;BME280;49201;53.426;10.300;2022-08-16T06:04:44;100681.59;;;20.66;94.88
63111;BME280;49201;53.426;10.300;2022-08-16T06:07:13;100687.91;;;20.93;93.83
63111;BME280;49201;53.426;10.300;2022-08-16T06:09:42;100683.88;;;21.15;93.14
63111;BME280;49201;53.426;10.300;2022-08-16T06:12:08;100687.28;;;21.47;91.14
63111;BME280;49201;53.426;10.300;2022-08-16T06:14:34;100692.69;;;21.41;90.63
63111;BME280;49201;53.426;10.300;2022-08-16T06:17:00;100694.44;;;21.41;91.05
63111;BME280;49201;53.426;10.300;2022-08-16T06:19:25;100694.50;;;21.39;90.93
63111;BME280;49201;53.426;10.300;2022-08-16T06:21:59;100689.19;;;21.42;91.06
63111;BME280;49201;53.426;10.300;2022-08-16T06:24:25;100687.28;;;21.47;90.32
63111;BME280;49201;53.426;10.300;2022-08-16T06:26:51;100686.72;;;21.68;90.49
63111;BME280;49201;53.426;10.300;2022-08-16T06:29:16;100681.19;;;22.09;89.11
63111;BME280;49201;53.426;10.300;2022-08-16T06:31:43;100690.94;;;22.30;88.67
63111;BME280;49201;53.426;10.300;2022-08-16T06:34:09;100691.63;;;22.37;88.25
63111;BME280;49201;53.426;10.300;2022-08-16T06:36:35;100697.69;;;22.38;87.19
63111;BME280;49201;53.426;10.300;2022-08-16T06:39:12;100694.34;;;22.34;86.93
63111;BME280;49201;53.426;10.300;2022-08-16T06:41:58;100703.59;;;22.46;86.61
63111;BME280;49201;53.426;10.300;2022-08-16T06:44:50;100705.91;;;22.55;86.56
63111;BME280;49201;53.426;10.300;2022-08-16T06:47:36;100708.22;;;22.90;84.50
63111;BME280;49201;53.426;10.300;2022-08-16T06:50:02;100713.75;;;22.81;84.89
63111;BME280;49201;53.426;10.300;2022-08-16T06:52:35;100718.13;;;22.53;84.81
63111;BME280;49201;53.426;10.300;2022-08-16T06:55:06;100714.25;;;22.66;84.11
63111;BME280;49201;53.426;10.300;2022-08-16T06:57:32;100716.88;;;22.92;82.47
63111;BME280;49201;53.426;10.300;2022-08-16T06:59:58;100713.53;;;22.87;82.97
63111;BME280;49201;53.426;10.300;2022-08-16T07:02:31;100713.53;;;23.13;82.78
63111;BME280;49201;53.426;10.300;2022-08-16T07:04:57;100712.91;;;23.05;81.62
63111;BME280;49201;53.426;10.300;2022-08-16T07:07:22;100708.31;;;23.13;81.26
63111;BME280;49201;53.426;10.300;2022-08-16T07:09:48;100718.56;;;23.19;81.09
63111;BME280;49201;53.426;10.300;2022-08-16T07:12:14;100709.00;;;23.44;79.42
63111;BME280;49201;53.426;10.300;2022-08-16T07:14:42;100713.94;;;23.51;80.36
63111;BME280;49201;53.426;10.300;2022-08-16T07:17:12;100712.66;;;23.38;78.85
63111;BME280;49201;53.426;10.300;2022-08-16T07:19:41;100713.81;;;23.31;79.67
63111;BME280;49201;53.426;10.300;2022-08-16T07:22:07;100721.63;;;23.31;80.54
63111;BME280;49201;53.426;10.300;2022-08-16T07:24:33;100721.75;;;23.28;80.28
63111;BME280;49201;53.426;10.300;2022-08-16T07:27:03;100722.31;;;23.10;80.67
63111;BME280;49201;53.426;10.300;2022-08-16T07:29:29;100730.06;;;23.13;80.89
63111;BME280;49201;53.426;10.300;2022-08-16T07:31:55;100730.16;;;23.10;81.19
63111;BME280;49201;53.426;10.300;2022-08-16T07:34:21;100735.25;;;23.15;81.81
63111;BME280;49201;53.426;10.300;2022-08-16T07:36:47;100735.56;;;23.06;79.67
63111;BME280;49201;53.426;10.300;2022-08-16T07:39:13;100738.88;;;23.11;79.65
63111;BME280;49201;53.426;10.300;2022-08-16T07:41:40;100748.91;;;22.97;78.89
63111;BME280;49201;53.426;10.300;2022-08-16T07:44:07;100742.47;;;23.07;78.40
63111;BME280;49201;53.426;10.300;2022-08-16T07:46:33;100747.50;;;23.39;77.94
63111;BME280;49201;53.426;10.300;2022-08-16T07:49:03;100746.50;;;23.92;76.26
63111;BME280;49201;53.426;10.300;2022-08-16T07:51:33;100737.09;;;24.77;73.09
63111;BME280;49201;53.426;10.300;2022-08-16T07:54:03;100743.00;;;24.82;72.49
63111;BME280;49201;53.426;10.300;2022-08-16T07:56:29;100742.75;;;24.66;71.63
63111;BME280;49201;53.426;10.300;2022-08-16T07:58:55;100740.13;;;25.08;71.56
63111;BME280;49201;53.426;10.300;2022-08-16T08:01:25;100741.44;;;25.59;69.90
63111;BME280;49201;53.426;10.300;2022-08-16T08:03:56;100741.41;;;25.79;67.82
63111;BME280;49201;53.426;10.300;2022-08-16T08:06:29;100741.56;;;25.76;68.32
63111;BME280;49201;53.426;10.300;2022-08-16T08:08:59;100740.06;;;25.71;68.71
63111;BME280;49201;53.426;10.300;2022-08-16T08:11:27;100748.28;;;25.63;68.62
63111;BME280;49201;53.426;10.300;2022-08-16T08:13:54;100750.97;;;25.42;68.98
63111;BME280;49201;53.426;10.300;2022-08-16T08:16:21;100760.59;;;25.41;69.29
63111;BME280;49201;53.426;10.300;2022-08-16T08:18:47;100752.47;;;25.06;68.75
63111;BME280;49201;53.426;10.300;2022-08-16T08:21:14;100759.94;;;25.56;67.52
63111;BME280;49201;53.426;10.300;2022-08-16T08:23:44;100760.88;;;25.75;66.42
63111;BME280;49201;53.426;10.300;2022-08-16T08:26:10;100766.81;;;25.99;66.54
63111;BME280;49201;53.426;10.300;2022-08-16T08:28:36;100765.22;;;26.70;64.02
63111;BME280;49201;53.426;10.300;2022-08-16T08:31:04;100764.75;;;26.98;63.63
63111;BME280;49201;53.426;10.300;2022-08-16T08:33:35;100763.63;;;27.37;59.55
63111;BME280;49201;53.426;10.300;2022-08-16T08:36:04;100775.91;;;26.84;59.63
63111;BME280;49201;53.426;10.300;2022-08-16T08:38:32;100776.66;;;26.69;60.58
63111;BME280;49201;53.426;10.300;2022-08-16T08:40:59;100771.44;;;27.03;58.48
63111;BME280;49201;53.426;10.300;2022-08-16T08:43:25;100774.59;;;27.45;58.30
63111;BME280;49201;53.426;10.300;2022-08-16T08:45:55;100774.06;;;27.90;56.01
63111;BME280;49201;53.426;10.300;2022-08-16T08:48:26;100762.38;;;28.26;54.92
63111;BME280;49201;53.426;10.300;2022-08-16T08:50:52;100759.59;;;28.45;54.71
63111;BME280;49201;53.426;10.300;2022-08-16T08:53:18;100774.41;;;28.78;55.08
63111;BME280;49201;53.426;10.300;2022-08-16T08:55:43;100770.69;;;28.98;55.55
63111;BME280;49201;53.426;10.300;2022-08-16T08:58:14;100776.41;;;29.20;53.75
63111;BME280;49201;53.426;10.300;2022-08-16T09:01:01;100774.44;;;29.23;53.78
63111;BME280;49201;53.426;10.300;2022-08-16T09:03:29;100778.47;;;29.15;54.31
63111;BME280;49201;53.426;10.300;2022-08-16T09:05:54;100784.28;;;28.59;52.76
63111;BME280;49201;53.426;10.300;2022-08-16T09:08:20;100785.22;;;28.43;53.79
63111;BME280;49201;53.426;10.300;2022-08-16T09:10:55;100795.66;;;27.79;54.54
63111;BME280;49201;53.426;10.300;2022-08-16T09:13:22;100797.66;;;27.40;56.15
63111;BME280;49201;53.426;10.300;2022-08-16T09:15:53;100793.88;;;27.63;55.49
63111;BME280;49201;53.426;10.300;2022-08-16T09:18:23;100787.44;;;28.02;54.49
63111;BME280;49201;53.426;10.300;2022-08-16T09:20:52;100782.50;;;28.60;52.92
63111;BME280;49201;53.426;10.300;2022-08-16T09:23:19;100775.16;;;28.96;51.98
63111;BME280;49201;53.426;10.300;2022-08-16T09:25:45;100778.31;;;29.02;51.68
63111;BME280;49201;53.426;10.300;2022-08-16T09:28:14;100784.50;;;28.86;51.76
63111;BME280;49201;53.426;10.300;2022-08-16T09:30:45;100779.19;;;29.62;51.43
63111;BME280;49201;53.426;10.300;2022-08-16T09:33:12;100783.88;;;30.15;49.33
63111;BME280;49201;53.426;10.300;2022-08-16T09:35:43;100781.03;;;30.17;49.56
63111;BME280;49201;53.426;10.300;2022-08-16T09:38:10;100775.41;;;30.64;49.70
63111;BME280;49201;53.426;10.300;2022-08-16T09:40:42;100788.31;;;30.28;47.39
63111;BME280;49201;53.426;10.300;2022-08-16T09:43:14;100785.91;;;29.67;49.06
63111;BME280;49201;53.426;10.300;2022-08-16T09:45:39;100790.72;;;29.75;48.16
63111;BME280;49201;53.426;10.300;2022-08-16T09:48:10;100792.50;;;29.74;48.63
63111;BME280;49201;53.426;10.300;2022-08-16T09:50:37;100793.31;;;30.04;46.35
63111;BME280;49201;53.426;10.300;2022-08-16T09:53:05;100792.81;;;30.95;45.84
63111;BME280;49201;53.426;10.300;2022-08-16T09:55:31;100793.41;;;30.86;44.90
63111;BME280;49201;53.426;10.300;2022-08-16T09:57:56;100802.84;;;30.49;44.78
63111;BME280;49201;53.426;10.300;2022-08-16T10:00:22;100800.94;;;29.95;45.76
63111;BME280;49201;53.426;10.300;2022-08-16T10:02:52;100793.97;;;30.22;47.02
63111;BME280;49201;53.426;10.300;2022-08-16T10:05:17;100796.75;;;30.75;46.86
63111;BME280;49201;53.426;10.300;2022-08-16T10:07:45;100796.41;;;30.67;44.64
63111;BME280;49201;53.426;10.300;2022-08-16T10:10:21;100794.06;;;31.16;44.49
63111;BME280;49201;53.426;10.300;2022-08-16T10:12:48;100787.22;;;31.26;46.08
63111;BME280;49201;53.426;10.300;2022-08-16T10:15:34;100781.50;;;31.96;44.22
63111;BME280;49201;53.426;10.300;2022-08-16T10:18:01;100786.44;;;32.25;43.71
63111;BME280;49201;53.426;10.300;2022-08-16T10:20:41;100782.75;;;32.03;42.27
63111;BME280;49201;53.426;10.300;2022-08-16T10:23:11;100798.19;;;29.82;44.56
63111;BME280;49201;53.426;10.300;2022-08-16T10:25:40;100804.31;;;29.53;46.57
63111;BME280;49201;53.426;10.300;2022-08-16T10:28:06;100797.84;;;29.59;47.70
63111;BME280;49201;53.426;10.300;2022-08-16T10:30:33;100797.53;;;29.20;49.87
63111;BME280;49201;53.426;10.300;2022-08-16T10:32:58;100803.75;;;28.88;52.04
63111;BME280;49201;53.426;10.300;2022-08-16T10:35:24;100803.16;;;28.52;52.24
63111;BME280;49201;53.426;10.300;2022-08-16T10:37:50;100804.19;;;28.80;52.16
63111;BME280;49201;53.426;10.300;2022-08-16T10:40:16;100804.59;;;28.42;51.65
63111;BME280;49201;53.426;10.300;2022-08-16T10:42:42;100807.31;;;28.40;52.13
63111;BME280;49201;53.426;10.300;2022-08-16T10:45:08;100800.09;;;28.90;50.61
63111;BME280;49201;53.426;10.300;2022-08-16T10:47:34;100802.81;;;29.20;50.80
63111;BME280;49201;53.426;10.300;2022-08-16T10:50:00;100799.22;;;29.50;45.30
63111;BME280;49201;53.426;10.300;2022-08-16T10:52:26;100803.66;;;29.93;45.90
63111;BME280;49201;53.426;10.300;2022-08-16T10:54:51;100808.31;;;30.46;44.11
63111;BME280;49201;53.426;10.300;2022-08-16T10:57:17;100804.63;;;30.89;43.85
63111;BME280;49201;53.426;10.300;2022-08-16T10:59:42;100803.03;;;31.40;43.32
63111;BME280;49201;53.426;10.300;2022-08-16T11:02:09;100805.06;;;31.49;42.28
63111;BME280;49201;53.426;10.300;2022-08-16T11:04:35;100815.66;;;30.96;42.64
63111;BME280;49201;53.426;10.300;2022-08-16T11:07:00;100803.63;;;30.78;43.81
63111;BME280;49201;53.426;10.300;2022-08-16T11:09:26;100811.28;;;31.35;43.43
63111;BME280;49201;53.426;10.300;2022-08-16T11:11:51;100806.00;;;31.09;44.12
63111;BME280;49201;53.426;10.300;2022-08-16T11:14:17;100818.91;;;31.79;43.06
63111;BME280;49201;53.426;10.300;2022-08-16T11:16:44;100819.16;;;31.49;42.60
63111;BME280;49201;53.426;10.300;2022-08-16T11:19:09;100821.88;;;31.87;42.30
63111;BME280;49201;53.426;10.300;2022-08-16T11:21:35;100810.22;;;31.89;41.05
63111;BME280;49201;53.426;10.300;2022-08-16T11:24:02;100816.78;;;32.34;41.57
63111;BME280;49201;53.426;10.300;2022-08-16T11:26:28;100806.03;;;32.96;39.63
63111;BME280;49201;53.426;10.300;2022-08-16T11:28:55;100807.13;;;33.28;39.76
63111;BME280;49201;53.426;10.300;2022-08-16T11:31:22;100806.44;;;33.61;39.77
63111;BME280;49201;53.426;10.300;2022-08-16T11:33:48;100798.09;;;33.65;40.06
63111;BME280;49201;53.426;10.300;2022-08-16T11:36:14;100796.00;;;33.92;38.52
63111;BME280;49201;53.426;10.300;2022-08-16T11:38:40;100800.16;;;34.29;38.50
63111;BME280;49201;53.426;10.300;2022-08-16T11:41:06;100795.28;;;34.23;38.10
63111;BME280;49201;53.426;10.300;2022-08-16T11:43:35;100801.47;;;34.35;37.69
63111;BME280;49201;53.426;10.300;2022-08-16T11:46:04;100801.69;;;34.21;36.78
63111;BME280;49201;53.426;10.300;2022-08-16T11:48:32;100798.19;;;34.20;37.76
63111;BME280;49201;53.426;10.300;2022-08-16T11:50:58;100794.63;;;34.75;37.63
63111;BME280;49201;53.426;10.300;2022-08-16T11:53:25;100803.50;;;34.53;37.11
63111;BME280;49201;53.426;10.300;2022-08-16T11:55:53;100806.94;;;32.72;39.21
63111;BME280;49201;53.426;10.300;2022-08-16T11:58:20;100802.06;;;32.66;39.86
63111;BME280;49201;53.426;10.300;2022-08-16T12:00:46;100794.44;;;32.13;41.75
63111;BME280;49201;53.426;10.300;2022-08-16T12:03:13;100796.03;;;31.78;41.48
63111;BME280;49201;53.426;10.300;2022-08-16T12:05:41;100809.94;;;31.16;43.92
63111;BME280;49201;53.426;10.300;2022-08-16T12:08:08;100810.34;;;31.36;43.65
63111;BME280;49201;53.426;10.300;2022-08-16T12:10:35;100817.88;;;30.89;44.45
63111;BME280;49201;53.426;10.300;2022-08-16T12:13:01;100813.38;;;31.30;44.28
63111;BME280;49201;53.426;10.300;2022-08-16T12:15:26;100820.13;;;31.61;44.17
63111;BME280;49201;53.426;10.300;2022-08-16T12:17:53;100826.28;;;31.61;43.66
63111;BME280;49201;53.426;10.300;2022-08-16T12:20:29;100815.31;;;31.28;43.86
63111;BME280;49201;53.426;10.300;2022-08-16T12:22:56;100820.81;;;31.38;43.67
63111;BME280;49201;53.426;10.300;2022-08-16T12:25:24;100819.34;;;31.20;43.84
63111;BME280;49201;53.426;10.300;2022-08-16T12:27:50;100827.25;;;31.60;42.59
63111;BME280;49201;53.426;10.300;2022-08-16T12:30:21;100829.28;;;31.69;43.19
63111;BME280;49201;53.426;10.300;2022-08-16T12:32:48;100825.13;;;31.65;42.37
63111;BME280;49201;53.426;10.300;2022-08-16T12:35:17;100828.56;;;31.14;43.01
63111;BME280;49201;53.426;10.300;2022-08-16T12:37:45;100836.94;;;30.94;43.86
63111;BME280;49201;53.426;10.300;2022-08-16T12:40:14;100831.81;;;30.65;44.77
63111;BME280;49201;53.426;10.300;2022-08-16T12:42:40;100841.34;;;30.25;45.79
63111;BME280;49201;53.426;10.300;2022-08-16T12:45:11;100840.66;;;30.07;46.30
63111;BME280;49201;53.426;10.300;2022-08-16T12:47:37;100841.69;;;29.91;45.67
63111;BME280;49201;53.426;10.300;2022-08-16T12:50:21;100848.72;;;29.76;45.28